Ana Sayfa
METAR-TAF:

METAR-TAF

Havaalanları :

Lyndonville, Vermont, Amerika Birleşik Devletleri

Enlem: 44-34-09N, Boylam: 072-01-05W, yükseklik: 362 m

Güncel hava durumu gözlemi

Rapor saat 18:55 UTC de 25 dakika önce yapıldı.
Rüzgar batı/güneybatıdan 10 kt ve 19 kt'a kadar ani rüzgarlar
Sıcaklık 28°C
Nem 37%
Basınç 1009 hPa
Görüş mesafesi: 16.1 km
Açık gökyüzü

METAR: KCDA 051855Z AUTO 24010G19KT 10SM CLR 28/12 A2981 RMK AO2 T02790120

Saat: 15:20 (19:20 UTC)


TAF: eksik

4.000'den fazla havaalanı için hava durumu gözlemleri ve tahminleri (METAR ve TAF raporları).

Kullanılabilir istasyonlar harita üzerinde sarı ve kırmızı noktalarla gösterilir.

İstasyonun adını görmek için fareyi noktanın üzerinde gezdirin.

Sonrasında hava gözlem ve tahminlerini görmek için tıklayın.

Haritayı değiştirmek için: yaklaştırmak için siyah artı işaretli yeşil düğmeye ve uzaklaştırmak için de eksi işaretli düğmeye hızla tıklayın; bitişik haritalar için yeşil okları kullanın.


METAR-TAF: